createdAt,value
2019-05-28T00:01:24.357Z,3.63
2019-05-28T00:03:54.846Z,3.70
2019-05-28T00:06:25.068Z,3.90
2019-05-28T00:08:55.045Z,3.60
2019-05-28T00:11:25.252Z,3.77
2019-05-28T00:13:55.717Z,5.00
2019-05-28T00:16:25.773Z,5.97
2019-05-28T00:18:55.768Z,7.63
2019-05-28T00:21:25.782Z,6.73
2019-05-28T00:23:55.760Z,19.73
2019-05-28T00:26:25.872Z,12.13
2019-05-28T00:28:56.464Z,5.93
2019-05-28T00:31:26.548Z,8.10
2019-05-28T00:33:56.949Z,5.37
2019-05-28T00:36:26.996Z,5.17
2019-05-28T00:38:57.160Z,5.00
2019-05-28T00:41:27.372Z,5.77
2019-05-28T00:43:57.478Z,5.10
2019-05-28T00:46:27.580Z,4.90
2019-05-28T00:48:57.658Z,4.93
2019-05-28T00:51:28.019Z,5.43
2019-05-28T00:53:58.149Z,5.27
2019-05-28T00:56:28.557Z,4.70
2019-05-28T00:58:59.353Z,6.97
2019-05-28T01:01:29.514Z,7.70
2019-05-28T01:03:59.499Z,7.50
2019-05-28T01:06:29.717Z,5.80
2019-05-28T01:09:00.014Z,7.60
2019-05-28T01:11:30.153Z,7.33
2019-05-28T01:14:00.472Z,7.27
2019-05-28T01:16:30.579Z,9.03
2019-05-28T01:19:00.810Z,8.00
2019-05-28T01:21:30.793Z,7.97
2019-05-28T01:24:01.288Z,6.40
2019-05-28T01:26:31.572Z,4.30
2019-05-28T01:29:01.915Z,4.97
2019-05-28T01:31:32.335Z,4.07
2019-05-28T01:34:02.581Z,5.03
2019-05-28T01:36:32.684Z,9.40
2019-05-28T01:39:02.887Z,15.03
2019-05-28T01:41:32.926Z,13.80
2019-05-28T01:44:03.221Z,8.10
2019-05-28T01:46:33.343Z,5.70
2019-05-28T01:49:03.503Z,5.63
2019-05-28T01:51:33.590Z,4.60
2019-05-28T01:54:03.904Z,4.33
2019-05-28T01:56:34.232Z,5.40
2019-05-28T01:59:04.445Z,4.40
2019-05-28T02:01:35.295Z,5.50
2019-05-28T02:04:06.550Z,6.53
2019-05-28T02:06:36.707Z,5.10
2019-05-28T02:09:08.651Z,5.50
2019-05-28T02:11:38.684Z,5.70
2019-05-28T02:14:08.815Z,7.30
2019-05-28T02:16:38.838Z,9.37
2019-05-28T02:19:08.993Z,9.97
2019-05-28T02:21:38.988Z,8.07
2019-05-28T02:24:09.120Z,10.83
2019-05-28T02:26:39.312Z,6.67
2019-05-28T02:29:09.581Z,8.67
2019-05-28T02:31:39.792Z,9.77
2019-05-28T02:34:09.944Z,6.93
2019-05-28T02:36:40.249Z,6.80
2019-05-28T02:39:10.577Z,5.30
2019-05-28T02:41:40.598Z,5.20
2019-05-28T02:44:10.992Z,4.80
2019-05-28T02:46:41.119Z,5.27
2019-05-28T02:49:11.276Z,4.77
2019-05-28T02:51:42.791Z,5.80
2019-05-28T02:54:13.618Z,6.50
2019-05-28T02:56:45.600Z,6.03
2019-05-28T02:59:18.381Z,5.87
2019-05-28T03:01:51.479Z,5.50
2019-05-28T03:04:24.533Z,5.50
2019-05-28T03:06:57.031Z,5.83
2019-05-28T03:09:27.535Z,5.60
2019-05-28T03:11:57.542Z,5.90
2019-05-28T03:14:28.012Z,5.97
2019-05-28T03:17:01.913Z,6.57
2019-05-28T03:19:33.876Z,6.77
2019-05-28T03:22:05.257Z,5.67
2019-05-28T03:24:36.208Z,6.53
2019-05-28T03:27:06.623Z,6.97
2019-05-28T03:29:38.289Z,6.30
2019-05-28T03:32:09.611Z,6.97
2019-05-28T03:34:42.005Z,6.47
2019-05-28T03:37:13.366Z,6.80
2019-05-28T03:39:46.740Z,7.30
2019-05-28T03:42:16.914Z,6.50
2019-05-28T03:44:47.144Z,6.93
2019-05-28T03:47:17.618Z,8.07
2019-05-28T03:49:48.535Z,8.00
2019-05-28T03:52:19.285Z,7.80
2019-05-28T03:54:49.734Z,8.50
2019-05-28T03:57:20.176Z,8.93
2019-05-28T03:59:50.514Z,8.80
2019-05-28T04:02:23.893Z,11.87
2019-05-28T04:04:52.382Z,12.50
2019-05-28T04:07:22.482Z,12.77
2019-05-28T04:09:52.747Z,12.23
2019-05-28T04:12:22.792Z,11.80
2019-05-28T04:14:52.775Z,11.67
2019-05-28T04:17:23.317Z,12.10
2019-05-28T04:19:53.406Z,11.70
2019-05-28T04:22:23.848Z,10.33
2019-05-28T04:24:53.912Z,9.27
2019-05-28T04:27:23.938Z,10.60
2019-05-28T04:29:53.971Z,10.50
2019-05-28T04:32:39.511Z,10.20
2019-05-28T04:34:55.709Z,10.00
2019-05-28T04:37:25.720Z,10.10
2019-05-28T04:39:55.741Z,10.30
2019-05-28T04:42:25.969Z,10.60
2019-05-28T04:44:55.922Z,8.23
2019-05-28T04:47:26.244Z,8.30
2019-05-28T04:49:56.356Z,7.40
2019-05-28T04:52:26.278Z,4.17
2019-05-28T04:54:56.337Z,4.17
2019-05-28T04:57:26.409Z,3.23
2019-05-28T04:59:56.428Z,3.27
2019-05-28T05:02:26.550Z,3.00
2019-05-28T05:04:56.569Z,2.10
2019-05-28T05:07:27.682Z,2.57
2019-05-28T05:09:57.786Z,2.10
2019-05-28T05:12:28.238Z,1.87
2019-05-28T05:14:58.731Z,2.27
2019-05-28T05:17:28.827Z,2.70
2019-05-28T05:19:58.856Z,2.00
2019-05-28T05:22:28.849Z,2.30
2019-05-28T05:24:58.935Z,2.33
2019-05-28T05:27:28.930Z,1.70
2019-05-28T05:29:58.932Z,3.13
2019-05-28T05:32:29.020Z,2.40
2019-05-28T05:34:59.110Z,2.13
2019-05-28T05:37:29.104Z,2.30
2019-05-28T05:39:59.120Z,2.07
2019-05-28T05:42:29.303Z,1.90
2019-05-28T05:44:59.481Z,2.30
2019-05-28T05:47:30.016Z,5.10
2019-05-28T05:50:00.177Z,3.10
2019-05-28T05:52:30.232Z,2.47
2019-05-28T05:55:00.982Z,1.53
2019-05-28T05:57:31.043Z,1.73
2019-05-28T06:00:01.253Z,1.77
2019-05-28T06:02:31.356Z,1.90
2019-05-28T06:05:01.368Z,1.90
2019-05-28T06:07:31.367Z,1.73
2019-05-28T06:10:02.385Z,2.30
2019-05-28T06:12:32.370Z,3.07
2019-05-28T06:15:03.345Z,3.00
2019-05-28T06:17:33.401Z,2.03
2019-05-28T06:20:03.496Z,2.10
2019-05-28T06:22:33.707Z,2.83
2019-05-28T06:25:04.105Z,3.33
2019-05-28T06:27:34.300Z,4.93
2019-05-28T06:30:04.967Z,3.97
2019-05-28T06:32:36.078Z,5.20
2019-05-28T06:35:06.932Z,3.30
2019-05-28T06:37:37.194Z,2.17
2019-05-28T06:40:08.258Z,1.60
2019-05-28T06:42:40.746Z,3.77
2019-05-28T06:45:11.203Z,2.43
2019-05-28T06:47:45.122Z,2.60
2019-05-28T06:50:13.681Z,2.97
2019-05-28T06:52:43.700Z,3.77
2019-05-28T06:55:13.754Z,5.60
2019-05-28T06:57:43.880Z,3.30
2019-05-28T07:00:14.379Z,3.47
2019-05-28T07:02:44.645Z,3.23
2019-05-28T07:05:15.709Z,3.03
2019-05-28T07:07:46.130Z,3.63
2019-05-28T07:10:16.477Z,3.60
2019-05-28T07:12:46.499Z,3.40
2019-05-28T07:15:17.071Z,4.13
2019-05-28T07:17:47.176Z,4.00
2019-05-28T07:20:18.906Z,3.30
2019-05-28T07:22:48.930Z,3.50
2019-05-28T07:25:19.326Z,3.77
2019-05-28T07:27:49.413Z,3.47
2019-05-28T07:30:19.554Z,3.50
2019-05-28T07:32:49.643Z,3.30
2019-05-28T07:35:19.952Z,2.90
2019-05-28T07:37:49.975Z,3.40
2019-05-28T07:40:31.038Z,2.73
2019-05-28T07:42:51.811Z,2.87
2019-05-28T07:45:21.851Z,3.37
2019-05-28T07:47:51.984Z,2.83
2019-05-28T07:50:22.040Z,2.63
2019-05-28T07:52:52.732Z,3.13
2019-05-28T07:55:22.698Z,2.90
2019-05-28T07:57:52.797Z,3.67
2019-05-28T08:00:44.398Z,2.53
2019-05-28T08:03:14.509Z,2.97
2019-05-28T08:05:44.568Z,2.73
2019-05-28T08:08:17.556Z,3.00
2019-05-28T08:10:47.656Z,2.70
2019-05-28T08:13:17.916Z,3.13
2019-05-28T08:15:47.925Z,2.47
2019-05-28T08:18:17.971Z,2.80
2019-05-28T08:20:48.524Z,3.07
2019-05-28T08:23:18.559Z,3.10
2019-05-28T08:25:48.552Z,3.40
2019-05-28T08:28:20.507Z,4.03
2019-05-28T08:30:50.359Z,3.27
2019-05-28T08:33:20.510Z,2.80
2019-05-28T08:35:51.700Z,2.97
2019-05-28T08:38:21.957Z,3.27
2019-05-28T08:40:51.931Z,2.53
2019-05-28T08:43:22.084Z,2.77
2019-05-28T08:45:52.505Z,3.30
2019-05-28T08:48:22.509Z,3.80
2019-05-28T08:50:52.506Z,3.50
2019-05-28T08:53:22.780Z,3.33
2019-05-28T08:55:52.996Z,3.00
2019-05-28T08:58:23.228Z,4.20
2019-05-28T09:00:53.360Z,4.47
2019-05-28T09:03:23.495Z,37.63
2019-05-28T09:05:53.605Z,19.10
2019-05-28T09:08:37.886Z,5.77
2019-05-28T09:10:55.426Z,4.77
2019-05-28T09:13:26.094Z,6.30
2019-05-28T09:15:56.548Z,4.60
2019-05-28T09:18:26.751Z,3.50
2019-05-28T09:20:56.843Z,5.60
2019-05-28T09:23:27.310Z,5.87
2019-05-28T09:25:57.732Z,3.63
2019-05-28T09:28:30.554Z,3.30
2019-05-28T09:30:59.351Z,2.80
2019-05-28T09:33:29.344Z,2.80
2019-05-28T09:36:08.278Z,2.67
2019-05-28T09:38:31.413Z,3.13
2019-05-28T09:41:05.530Z,3.17
2019-05-28T09:43:33.284Z,7.50
2019-05-28T09:46:03.529Z,2.70
2019-05-28T09:48:33.752Z,3.73
2019-05-28T09:51:03.740Z,3.03
2019-05-28T09:53:34.940Z,2.30
2019-05-28T09:56:05.970Z,2.30
2019-05-28T09:58:36.047Z,2.40
2019-05-28T10:01:06.348Z,4.20
2019-05-28T10:03:36.316Z,5.33
2019-05-28T10:06:16.232Z,3.80
2019-05-28T10:08:38.135Z,5.47
2019-05-28T10:11:08.304Z,3.00
2019-05-28T10:13:41.196Z,9.10
2019-05-28T10:16:10.279Z,6.53
2019-05-28T10:18:40.242Z,3.60
2019-05-28T10:21:18.191Z,2.37
2019-05-28T10:23:42.025Z,2.40
2019-05-28T10:26:12.287Z,2.83
2019-05-28T10:28:42.213Z,2.80
2019-05-28T10:31:12.296Z,2.70
2019-05-28T10:33:42.322Z,5.10
2019-05-28T10:36:12.311Z,6.77
2019-05-28T10:38:42.441Z,9.80
2019-05-28T10:41:12.693Z,11.00
2019-05-28T10:43:43.050Z,20.60
2019-05-28T17:51:56.885Z,6.60
2019-05-28T17:54:26.971Z,6.37
2019-05-28T17:56:57.238Z,6.30
2019-05-28T17:59:27.330Z,5.50
2019-05-28T18:01:57.401Z,4.63
2019-05-28T18:04:27.593Z,5.83
2019-05-28T18:06:57.682Z,5.40
2019-05-28T18:09:27.786Z,5.87
2019-05-28T18:11:58.364Z,5.63
2019-05-28T18:14:28.604Z,5.80
2019-05-28T18:16:58.766Z,6.80
2019-05-28T18:19:29.058Z,6.43
2019-05-28T18:21:59.195Z,6.77
2019-05-28T18:24:29.340Z,5.07
2019-05-28T18:26:59.813Z,6.80
2019-05-28T18:29:29.897Z,6.57
2019-05-28T18:32:00.404Z,5.77
2019-05-28T18:34:30.859Z,5.30
2019-05-28T18:37:00.894Z,6.60
2019-05-28T18:39:30.996Z,5.07
2019-05-28T18:42:01.397Z,6.03
2019-05-28T18:44:31.513Z,5.00
2019-05-28T18:47:01.609Z,6.60
2019-05-28T18:49:31.713Z,5.10
2019-05-28T18:52:02.621Z,4.67
2019-05-28T18:54:32.711Z,5.17
2019-05-28T18:57:02.845Z,6.27
2019-05-28T18:59:35.284Z,6.17
2019-05-28T19:02:05.105Z,5.70
2019-05-28T19:04:35.994Z,6.20
2019-05-28T19:07:06.072Z,5.40
2019-05-28T19:09:36.266Z,5.77
2019-05-28T19:12:06.391Z,4.90
2019-05-28T19:14:36.570Z,5.57
2019-05-28T19:17:06.937Z,4.80
2019-05-28T19:19:37.053Z,5.60
2019-05-28T19:22:07.213Z,6.00
2019-05-28T19:24:37.517Z,5.60
2019-05-28T19:27:07.728Z,5.27
2019-05-28T19:29:38.043Z,4.77
2019-05-28T19:32:08.341Z,4.63
2019-05-28T19:34:38.696Z,5.70
2019-05-28T19:37:09.772Z,5.30
2019-05-28T19:39:40.766Z,5.63
2019-05-28T19:42:11.004Z,5.30
2019-05-28T19:44:41.412Z,5.50
2019-05-28T19:47:11.661Z,5.40
2019-05-28T19:49:41.724Z,5.40
2019-05-28T19:52:11.760Z,6.20
2019-05-28T19:54:42.099Z,5.50
2019-05-28T19:57:12.838Z,5.33
2019-05-28T19:59:43.136Z,4.97
2019-05-28T20:02:13.330Z,6.10
2019-05-28T20:04:43.489Z,6.00
2019-05-28T20:07:13.748Z,5.47
2019-05-28T20:09:43.956Z,4.97
2019-05-28T20:12:14.257Z,5.13
2019-05-28T20:14:45.048Z,5.93
2019-05-28T20:17:16.894Z,5.73
2019-05-28T20:19:47.821Z,6.27
2019-05-28T20:22:18.161Z,5.90
2019-05-28T20:24:48.275Z,6.87
2019-05-28T20:27:18.285Z,5.20
2019-05-28T20:29:48.309Z,5.90
2019-05-28T20:32:18.334Z,5.70
2019-05-28T20:34:48.361Z,5.33
2019-05-28T20:37:18.479Z,4.80
2019-05-28T20:39:48.659Z,3.57
2019-05-28T20:42:27.518Z,4.47
2019-05-28T20:44:51.249Z,4.73
2019-05-28T20:47:21.728Z,4.43
2019-05-28T20:49:52.153Z,3.90
2019-05-28T20:52:22.772Z,4.23
2019-05-28T20:54:55.572Z,4.40
2019-05-28T20:57:25.826Z,4.17
2019-05-28T20:59:57.764Z,3.97
2019-05-28T21:02:27.940Z,4.10
2019-05-28T21:04:58.915Z,4.60
2019-05-28T21:07:29.169Z,4.90
2019-05-28T21:09:59.318Z,3.67
2019-05-28T21:12:42.682Z,3.60
2019-05-28T21:15:01.903Z,4.23
2019-05-28T21:17:32.043Z,3.90
2019-05-28T21:20:02.193Z,4.57
2019-05-28T21:22:32.396Z,4.73
2019-05-28T21:25:02.554Z,4.87
2019-05-28T21:27:32.782Z,4.63
2019-05-28T21:30:02.908Z,5.13
2019-05-28T21:32:33.288Z,5.20
2019-05-28T21:35:03.404Z,4.80
2019-05-28T21:37:34.055Z,5.00
2019-05-28T21:40:04.325Z,5.03
2019-05-28T21:42:34.724Z,4.30
2019-05-28T21:45:05.193Z,5.30
2019-05-28T21:47:35.728Z,5.20
2019-05-28T21:50:06.341Z,4.43
2019-05-28T21:52:36.490Z,5.40
2019-05-28T21:55:08.161Z,7.47
2019-05-28T21:57:38.328Z,8.77
2019-05-28T22:00:16.274Z,7.27
2019-05-28T22:02:46.720Z,5.67
2019-05-28T22:05:17.233Z,5.20
2019-05-28T22:07:47.421Z,5.60
2019-05-28T22:10:17.678Z,8.27
2019-05-28T22:12:47.832Z,6.90
2019-05-28T22:15:18.588Z,6.70
2019-05-28T22:17:48.666Z,5.27
2019-05-28T22:20:18.981Z,5.63
2019-05-28T22:22:49.353Z,6.90
2019-05-28T22:25:19.600Z,4.50
2019-05-28T22:27:49.801Z,6.30
2019-05-28T22:30:21.753Z,4.90
2019-05-28T22:32:52.000Z,4.80
2019-05-28T22:35:22.520Z,6.90
2019-05-28T22:37:52.862Z,8.03
2019-05-28T22:40:23.167Z,9.53
2019-05-28T22:42:53.508Z,11.03
2019-05-28T22:45:24.080Z,6.10
2019-05-28T22:47:54.224Z,9.00
2019-05-28T22:50:24.632Z,9.40
2019-05-28T22:52:54.932Z,5.97
2019-05-28T22:55:25.388Z,6.60
2019-05-28T22:57:55.743Z,6.87
2019-05-28T23:00:26.773Z,7.40
2019-05-28T23:02:57.082Z,7.73
2019-05-28T23:05:27.233Z,7.67
2019-05-28T23:07:57.472Z,5.97
2019-05-28T23:10:28.141Z,6.00
2019-05-28T23:12:58.277Z,10.97
2019-05-28T23:15:28.514Z,7.50
2019-05-28T23:17:58.669Z,5.77
2019-05-28T23:20:28.895Z,10.00
2019-05-28T23:22:59.445Z,8.80
2019-05-28T23:25:30.587Z,7.97
2019-05-28T23:28:01.429Z,9.90
2019-05-28T23:30:31.979Z,5.40
2019-05-28T23:33:02.364Z,4.93
2019-05-28T23:35:33.174Z,4.50
2019-05-28T23:38:03.432Z,3.80
2019-05-28T23:40:33.645Z,3.60
2019-05-28T23:43:03.920Z,4.27
2019-05-28T23:45:34.262Z,5.60
2019-05-28T23:48:10.845Z,3.77
2019-05-28T23:50:36.544Z,4.50
2019-05-28T23:53:07.712Z,4.30
2019-05-28T23:55:38.160Z,4.60
2019-05-28T23:58:08.404Z,6.57
